createdAt,value
2019-03-24T00:01:40.682Z,29.27
2019-03-24T00:04:02.935Z,28.53
2019-03-24T00:06:33.350Z,27.73
2019-03-24T00:09:02.100Z,28.17
2019-03-24T00:11:30.779Z,29.10
2019-03-24T00:13:58.984Z,29.87
2019-03-24T00:16:28.564Z,27.97
2019-03-24T00:18:56.745Z,27.73
2019-03-24T00:21:24.909Z,28.03
2019-03-24T00:23:53.708Z,28.90
2019-03-24T00:26:23.533Z,28.47
2019-03-24T00:28:52.933Z,27.70
2019-03-24T00:31:21.419Z,28.67
2019-03-24T00:33:49.665Z,27.60
2019-03-24T00:41:27.916Z,26.83
2019-03-24T00:43:56.256Z,27.73
2019-03-24T00:46:24.721Z,28.33
2019-03-24T00:48:52.930Z,29.63
2019-03-24T00:51:21.866Z,27.17
2019-03-24T00:53:51.363Z,27.03
2019-03-24T00:56:19.552Z,27.20
2019-03-24T00:58:48.154Z,27.83
2019-03-24T01:01:16.597Z,26.43
2019-03-24T01:03:44.824Z,28.57
2019-03-24T01:06:13.172Z,27.93
2019-03-24T01:08:41.375Z,28.10
2019-03-24T01:11:09.631Z,28.10
2019-03-24T01:13:40.185Z,29.47
2019-03-24T01:16:08.396Z,27.70
2019-03-24T01:18:39.321Z,26.40
2019-03-24T01:21:10.812Z,29.83
2019-03-24T01:23:41.592Z,27.63
2019-03-24T01:26:14.842Z,27.87
2019-03-24T01:28:43.256Z,29.03
2019-03-24T01:31:11.428Z,29.67
2019-03-24T01:33:42.437Z,28.53
2019-03-24T01:36:13.437Z,26.43
2019-03-24T01:38:41.654Z,28.23
2019-03-24T01:41:10.490Z,30.03
2019-03-24T01:43:38.670Z,29.87
2019-03-24T01:46:10.130Z,27.87
2019-03-24T01:48:38.372Z,28.17
2019-03-24T01:51:06.598Z,28.20
2019-03-24T01:53:35.081Z,28.53
2019-03-24T01:56:03.466Z,26.80
2019-03-24T01:58:40.555Z,27.07
2019-03-24T02:01:08.896Z,26.63
2019-03-24T02:03:37.050Z,26.17
2019-03-24T02:06:05.218Z,25.03
2019-03-24T02:08:34.938Z,26.73
2019-03-24T02:11:03.180Z,26.80
2019-03-24T02:13:31.371Z,26.87
2019-03-24T02:16:09.006Z,26.60
2019-03-24T02:18:29.719Z,27.67
2019-03-24T02:20:57.877Z,26.53
2019-03-24T02:23:26.116Z,26.90
2019-03-24T02:25:54.241Z,26.33
2019-03-24T02:28:22.537Z,26.93
2019-03-24T02:30:50.942Z,26.50
2019-03-24T02:33:21.445Z,26.90
2019-03-24T02:35:49.604Z,27.33
2019-03-24T02:38:20.071Z,25.27
2019-03-24T02:40:48.326Z,25.10
2019-03-24T02:43:16.997Z,27.70
2019-03-24T02:45:45.533Z,27.77
2019-03-24T02:48:15.202Z,28.80
2019-03-24T02:50:43.330Z,27.93
2019-03-24T02:53:11.549Z,27.63
2019-03-24T02:55:39.782Z,27.97
2019-03-24T02:58:07.936Z,26.93
2019-03-24T03:00:41.599Z,26.70
2019-03-24T03:03:09.734Z,26.73
2019-03-24T03:05:37.919Z,27.53
2019-03-24T03:08:06.617Z,28.33
2019-03-24T03:10:36.331Z,27.80
2019-03-24T03:13:04.528Z,27.40
2019-03-24T03:15:33.540Z,28.57
2019-03-24T03:18:01.735Z,26.83
2019-03-24T03:20:29.908Z,27.17
2019-03-24T03:22:58.280Z,28.53
2019-03-24T03:25:26.461Z,28.37
2019-03-24T03:27:54.866Z,28.50
2019-03-24T03:30:23.125Z,28.40
2019-03-24T03:32:51.333Z,28.43
2019-03-24T03:35:20.837Z,28.37
2019-03-24T03:37:49.248Z,28.60
2019-03-24T03:40:17.503Z,29.27
2019-03-24T03:42:45.775Z,28.40
2019-03-24T03:45:19.699Z,27.57
2019-03-24T03:47:48.295Z,28.23
2019-03-24T03:50:16.492Z,26.87
2019-03-24T03:52:45.165Z,27.57
2019-03-24T03:55:13.496Z,27.40
2019-03-24T03:57:41.659Z,28.03
2019-03-24T04:00:36.876Z,29.03
2019-03-24T04:03:05.789Z,28.10
2019-03-24T04:05:33.991Z,29.20
2019-03-24T04:08:02.402Z,28.80
2019-03-24T04:10:30.745Z,29.60
2019-03-24T04:12:59.160Z,27.83
2019-03-24T04:15:27.399Z,29.53
2019-03-24T04:17:55.529Z,28.70
2019-03-24T04:20:23.997Z,30.03
2019-03-24T04:22:52.396Z,30.93
2019-03-24T04:25:20.836Z,30.23
2019-03-24T04:27:49.369Z,29.10
2019-03-24T04:30:18.023Z,28.77
2019-03-24T04:32:46.197Z,30.27
2019-03-24T04:35:14.429Z,27.17
2019-03-24T04:37:42.676Z,27.17
2019-03-24T04:40:20.734Z,28.60
2019-03-24T04:42:58.024Z,27.43
2019-03-24T04:45:26.734Z,28.67
2019-03-24T04:47:55.345Z,30.67
2019-03-24T04:50:23.588Z,29.27
2019-03-24T04:52:52.992Z,29.50
2019-03-24T04:55:21.251Z,26.93
2019-03-24T04:57:49.614Z,28.90
2019-03-24T05:00:22.530Z,27.00
2019-03-24T05:02:50.782Z,27.80
2019-03-24T05:05:19.075Z,27.87
2019-03-24T05:07:47.510Z,28.67
2019-03-24T05:10:34.232Z,27.50
2019-03-24T05:13:02.739Z,27.77
2019-03-24T05:15:31.303Z,28.70
2019-03-24T05:17:59.549Z,27.93
2019-03-24T05:20:27.729Z,28.47
2019-03-24T05:22:55.860Z,26.77
2019-03-24T05:25:24.053Z,29.10
2019-03-24T05:27:52.441Z,27.03
2019-03-24T05:30:20.617Z,27.03
2019-03-24T05:32:48.912Z,27.10
2019-03-24T05:35:17.172Z,27.67
2019-03-24T05:37:45.359Z,26.87
2019-03-24T05:40:13.713Z,26.50
2019-03-24T05:42:41.834Z,28.33
2019-03-24T05:45:10.487Z,28.57
2019-03-24T05:47:38.949Z,28.00
2019-03-24T05:50:07.524Z,29.30
2019-03-24T05:52:35.715Z,28.17
2019-03-24T05:55:04.316Z,28.87
2019-03-24T05:57:32.463Z,29.33
2019-03-24T06:00:04.136Z,28.07
2019-03-24T06:02:32.794Z,26.43
2019-03-24T06:05:00.988Z,27.50
2019-03-24T06:07:31.452Z,28.77
2019-03-24T06:09:59.985Z,27.07
2019-03-24T06:12:28.139Z,27.60
2019-03-24T06:14:58.120Z,28.40
2019-03-24T06:17:27.597Z,27.63
2019-03-24T06:20:00.566Z,28.13
2019-03-24T06:22:29.155Z,29.90
2019-03-24T06:24:57.428Z,28.77
2019-03-24T06:27:25.613Z,29.67
2019-03-24T06:29:53.968Z,30.23
2019-03-24T06:32:22.192Z,28.57
2019-03-24T06:34:50.394Z,28.70
2019-03-24T06:37:18.591Z,30.13
2019-03-24T06:39:46.815Z,29.40
2019-03-24T06:42:17.225Z,30.30
2019-03-24T06:44:45.309Z,29.10
2019-03-24T06:47:13.549Z,28.83
2019-03-24T06:53:25.436Z,29.40
2019-03-24T06:55:53.686Z,28.20
2019-03-24T06:58:21.863Z,28.03
2019-03-24T07:00:51.514Z,29.27
2019-03-24T07:03:20.159Z,30.83
2019-03-24T07:05:48.620Z,31.17
2019-03-24T07:08:17.194Z,28.97
2019-03-24T07:10:45.474Z,30.63
2019-03-24T07:13:16.638Z,28.70
2019-03-24T07:15:44.909Z,28.33
2019-03-24T07:18:13.488Z,29.93
2019-03-24T07:20:41.833Z,29.43
2019-03-24T07:23:10.068Z,29.60
2019-03-24T07:25:38.462Z,28.93
2019-03-24T07:28:06.698Z,28.67
2019-03-24T07:30:35.213Z,28.00
2019-03-24T07:33:03.407Z,26.67
2019-03-24T07:35:31.745Z,27.50
2019-03-24T07:38:00.002Z,27.90
2019-03-24T07:40:28.281Z,26.93
2019-03-24T07:42:56.636Z,27.37
2019-03-24T07:45:26.816Z,28.87
2019-03-24T07:47:55.042Z,27.63
2019-03-24T07:50:24.099Z,27.07
2019-03-24T07:53:20.378Z,27.23
2019-03-24T07:56:00.087Z,26.70
2019-03-24T07:58:28.705Z,28.67
2019-03-24T08:00:58.846Z,27.93
2019-03-24T08:03:26.979Z,27.87
2019-03-24T08:06:14.809Z,27.40
2019-03-24T08:08:56.535Z,27.63
2019-03-24T08:11:35.326Z,27.70
2019-03-24T08:14:12.870Z,28.00
2019-03-24T08:16:50.709Z,28.23
2019-03-24T08:27:11.596Z,27.07
2019-03-24T08:29:55.793Z,29.27
2019-03-24T08:32:44.799Z,28.90
2019-03-24T08:39:07.003Z,27.63
2019-03-24T08:41:35.785Z,26.67
2019-03-24T08:44:32.847Z,25.53
2019-03-24T08:47:02.588Z,28.10
2019-03-24T08:49:32.249Z,27.80
2019-03-24T08:52:00.464Z,28.07
2019-03-24T08:54:30.795Z,27.53
2019-03-24T08:57:04.798Z,31.47
2019-03-24T08:59:33.501Z,27.80
2019-03-24T09:02:02.906Z,27.57
2019-03-24T09:04:36.652Z,28.23
2019-03-24T09:07:07.012Z,28.87
2019-03-24T09:09:40.660Z,27.80
2019-03-24T09:12:09.191Z,28.07
2019-03-24T09:14:37.474Z,28.63
2019-03-24T09:17:05.892Z,27.90
2019-03-24T09:19:34.528Z,29.07
2019-03-24T09:22:07.674Z,28.20
2019-03-24T09:24:35.824Z,28.27
2019-03-24T09:27:06.115Z,27.20
2019-03-24T09:29:34.342Z,24.67
2019-03-24T09:32:02.628Z,25.40
2019-03-24T09:34:31.143Z,27.00
2019-03-24T09:36:59.463Z,27.53
2019-03-24T09:39:30.029Z,27.10
2019-03-24T09:41:59.684Z,27.77
2019-03-24T09:44:34.522Z,26.73
2019-03-24T09:47:06.636Z,29.00
2019-03-24T09:49:36.287Z,28.13
2019-03-24T09:52:04.565Z,27.70
2019-03-24T09:54:33.728Z,26.47
2019-03-24T09:57:02.350Z,26.13
2019-03-24T09:59:30.812Z,25.03
2019-03-24T10:02:03.578Z,25.67
2019-03-24T10:04:32.210Z,25.87
2019-03-24T10:07:01.111Z,25.90
2019-03-24T10:09:29.581Z,25.20
2019-03-24T10:12:01.078Z,25.10
2019-03-24T10:14:41.982Z,24.90
2019-03-24T10:17:10.640Z,23.97
2019-03-24T10:19:39.224Z,23.37
2019-03-24T10:22:07.816Z,23.93
2019-03-24T10:24:40.295Z,23.43
2019-03-24T10:27:18.049Z,24.70
2019-03-24T10:29:58.471Z,23.93
2019-03-24T10:32:27.402Z,24.40
2019-03-24T10:34:55.770Z,24.23
2019-03-24T10:37:28.381Z,24.23
2019-03-24T10:40:01.050Z,23.20
2019-03-24T10:42:39.668Z,24.37
2019-03-24T10:45:25.433Z,24.03
2019-03-24T10:48:39.293Z,23.73
2019-03-24T10:51:45.184Z,25.93
2019-03-24T10:54:31.089Z,24.40
2019-03-24T10:57:25.083Z,26.30
2019-03-24T11:00:07.482Z,25.50
2019-03-24T11:03:07.327Z,24.63
2019-03-24T11:06:01.106Z,25.30
2019-03-24T11:12:04.838Z,25.30
2019-03-24T11:14:46.344Z,25.93
2019-03-24T11:17:15.465Z,25.30
2019-03-24T11:20:08.331Z,24.80
2019-03-24T11:22:45.257Z,24.60
2019-03-24T11:25:14.182Z,24.87
2019-03-24T11:27:44.230Z,24.07
2019-03-24T11:30:14.296Z,24.80
2019-03-24T11:32:42.998Z,24.73
2019-03-24T11:35:12.651Z,22.93
2019-03-24T11:37:42.818Z,22.83
2019-03-24T11:40:14.108Z,20.87
2019-03-24T11:42:42.298Z,22.63
2019-03-24T11:45:13.713Z,22.43
2019-03-24T11:47:43.099Z,22.37
2019-03-24T11:50:12.325Z,22.17
2019-03-24T11:52:42.285Z,22.00
2019-03-24T11:55:11.110Z,21.20
2019-03-24T11:57:40.339Z,21.10
2019-03-24T12:00:09.906Z,21.10
2019-03-24T12:02:40.710Z,22.17
2019-03-24T12:05:23.403Z,20.47
2019-03-24T12:08:01.914Z,21.67
2019-03-24T12:10:36.753Z,21.63
2019-03-24T12:13:26.779Z,19.83
2019-03-24T12:16:01.121Z,23.33
2019-03-24T12:18:32.903Z,19.57
2019-03-24T12:21:01.273Z,20.47
2019-03-24T12:23:30.791Z,22.00
2019-03-24T12:26:18.600Z,21.10
2019-03-24T12:28:48.611Z,20.07
2019-03-24T12:31:19.340Z,21.63
2019-03-24T12:33:50.910Z,20.73
2019-03-24T12:36:19.614Z,20.20
2019-03-24T12:39:28.715Z,20.57
2019-03-24T12:41:59.534Z,20.60
2019-03-24T12:44:30.780Z,20.37
2019-03-24T12:54:38.424Z,19.57
2019-03-24T12:57:19.185Z,18.97
2019-03-24T13:00:02.870Z,18.63
2019-03-24T13:02:33.278Z,20.83
2019-03-24T13:08:15.842Z,20.03
2019-03-24T13:10:56.298Z,20.73
2019-03-24T13:13:34.210Z,19.43
2019-03-24T13:16:06.704Z,19.73
2019-03-24T13:22:26.394Z,17.90
2019-03-24T13:25:00.565Z,19.17
2019-03-24T13:27:31.797Z,18.93
2019-03-24T13:30:05.723Z,16.83
2019-03-24T13:32:39.988Z,18.40
2019-03-24T13:35:27.739Z,18.57
2019-03-24T13:38:12.700Z,18.27
2019-03-24T13:44:46.199Z,17.90
2019-03-24T13:47:30.455Z,17.80
2019-03-24T13:50:02.999Z,16.80
2019-03-24T13:52:39.596Z,17.93
2019-03-24T13:55:35.485Z,17.20
2019-03-24T13:58:07.404Z,16.53
2019-03-24T14:00:44.790Z,16.93
2019-03-24T14:03:19.462Z,16.40
2019-03-24T14:05:53.834Z,17.37
2019-03-24T14:08:22.089Z,16.10
2019-03-24T14:10:50.441Z,15.90
2019-03-24T14:13:22.936Z,14.47
2019-03-24T14:15:51.903Z,14.63
2019-03-24T14:18:27.072Z,14.37
2019-03-24T14:25:26.122Z,14.10
2019-03-24T14:28:10.114Z,14.07
2019-03-24T14:30:54.595Z,14.07
2019-03-24T14:33:23.325Z,14.23
2019-03-24T14:35:56.585Z,13.97
2019-03-24T14:38:25.148Z,13.73
2019-03-24T14:41:06.522Z,13.10
2019-03-24T14:44:12.245Z,13.67
2019-03-24T14:46:44.284Z,13.60
2019-03-24T14:49:15.282Z,12.30
2019-03-24T14:51:44.085Z,12.33
2019-03-24T14:54:14.519Z,11.40
2019-03-24T14:56:42.970Z,11.37
2019-03-24T14:59:14.973Z,11.83
2019-03-24T15:01:49.855Z,10.87
2019-03-24T15:04:24.138Z,10.57
2019-03-24T15:06:58.150Z,10.13
2019-03-24T15:09:28.439Z,9.57
2019-03-24T15:11:58.607Z,9.50
2019-03-24T15:21:17.750Z,9.67
2019-03-24T15:23:56.110Z,9.40
2019-03-24T15:26:25.552Z,9.67
2019-03-24T15:29:08.729Z,10.10
2019-03-24T15:31:45.244Z,9.60
2019-03-24T15:34:33.153Z,9.57
2019-03-24T15:37:22.163Z,9.30
2019-03-24T15:42:59.348Z,9.47
2019-03-24T15:45:32.971Z,9.23
2019-03-24T15:48:13.704Z,9.37
2019-03-24T15:50:56.056Z,9.13
2019-03-24T15:53:26.069Z,9.53
2019-03-24T15:55:55.687Z,9.10
2019-03-24T15:58:45.802Z,9.00
2019-03-24T16:01:17.852Z,9.13
2019-03-24T16:03:49.122Z,8.30
2019-03-24T16:06:17.439Z,8.33
2019-03-24T16:09:08.889Z,8.90
2019-03-24T16:18:24.155Z,8.60
2019-03-24T16:20:53.425Z,9.07
2019-03-24T16:23:40.759Z,8.83
2019-03-24T16:26:24.697Z,9.97
2019-03-24T16:28:55.102Z,10.63
2019-03-24T16:31:27.963Z,9.70
2019-03-24T16:33:58.420Z,10.30
2019-03-24T16:36:26.653Z,10.30
2019-03-24T16:39:19.344Z,9.80
2019-03-24T16:41:55.504Z,9.20
2019-03-24T16:44:24.215Z,9.93
2019-03-24T16:47:13.166Z,10.70
2019-03-24T16:49:42.204Z,9.63
2019-03-24T16:52:11.517Z,10.33
2019-03-24T16:54:42.682Z,9.93
2019-03-24T16:57:23.064Z,9.90
2019-03-24T16:59:57.108Z,10.03
2019-03-24T17:02:27.489Z,9.77
2019-03-24T17:05:17.333Z,9.87
2019-03-24T17:07:47.727Z,10.87
2019-03-24T17:10:16.418Z,9.87
2019-03-24T17:13:11.330Z,9.10
2019-03-24T17:15:48.271Z,9.60
2019-03-24T17:18:17.273Z,9.67
2019-03-24T17:21:33.083Z,11.20
2019-03-24T17:24:22.857Z,10.07
2019-03-24T17:26:51.886Z,9.77
2019-03-24T17:29:20.831Z,9.77
2019-03-24T17:31:50.587Z,9.90
2019-03-24T17:34:27.923Z,10.53
2019-03-24T17:36:56.132Z,9.47
2019-03-24T17:46:21.809Z,11.10
2019-03-24T17:48:52.727Z,12.03
2019-03-24T17:51:28.883Z,11.37
2019-03-24T17:53:57.018Z,11.30
2019-03-24T17:56:25.482Z,14.90
2019-03-24T17:58:53.987Z,13.17
2019-03-24T18:01:29.535Z,13.77
2019-03-24T18:04:05.608Z,13.93
2019-03-24T18:06:43.297Z,16.43
2019-03-24T18:09:16.088Z,14.90
2019-03-24T18:11:48.514Z,15.67
2019-03-24T18:14:19.880Z,15.47
2019-03-24T18:16:58.151Z,16.53
2019-03-24T18:23:45.078Z,16.73
2019-03-24T18:26:17.225Z,15.77
2019-03-24T18:28:46.201Z,14.87
2019-03-24T18:31:29.437Z,13.37
2019-03-24T18:34:25.804Z,11.97
2019-03-24T18:37:17.612Z,11.77
2019-03-24T18:40:09.361Z,12.13
2019-03-24T18:43:21.952Z,11.17
2019-03-24T18:46:44.365Z,11.13
2019-03-24T18:49:37.246Z,12.43
2019-03-24T18:52:32.637Z,11.67
2019-03-24T18:55:08.628Z,11.70
2019-03-24T18:57:41.080Z,12.30
2019-03-24T19:00:12.841Z,12.33
2019-03-24T19:02:52.432Z,13.30
2019-03-24T19:06:41.349Z,13.00
2019-03-24T19:09:10.817Z,12.63
2019-03-24T19:11:40.858Z,11.80
2019-03-24T19:14:13.854Z,11.97
2019-03-24T19:16:42.306Z,13.20
2019-03-24T19:19:18.267Z,11.97
2019-03-24T19:21:49.692Z,13.37
2019-03-24T19:24:21.855Z,12.53
2019-03-24T19:26:57.046Z,11.93
2019-03-24T19:29:31.813Z,12.17
2019-03-24T19:32:11.131Z,13.77
2019-03-24T19:34:48.087Z,13.17
2019-03-24T19:37:35.591Z,13.43
2019-03-24T19:40:15.955Z,14.97
2019-03-24T19:42:50.408Z,13.80
2019-03-24T19:45:32.191Z,11.90
2019-03-24T19:48:13.224Z,11.50
2019-03-24T19:51:23.114Z,13.13
2019-03-24T19:53:54.633Z,13.70
2019-03-24T19:56:31.561Z,21.80
2019-03-24T19:59:04.042Z,12.00
2019-03-24T20:01:33.047Z,11.07
2019-03-24T20:04:01.718Z,11.70
2019-03-24T20:06:34.934Z,12.20
2019-03-24T20:09:11.603Z,11.97
2019-03-24T20:11:41.171Z,11.50
2019-03-24T20:14:54.841Z,12.10
2019-03-24T20:24:57.461Z,11.57
2019-03-24T20:27:42.674Z,11.27
2019-03-24T20:30:15.514Z,9.43
2019-03-24T20:32:52.475Z,9.40
2019-03-24T20:35:27.193Z,9.13
2019-03-24T20:38:07.953Z,8.93
2019-03-24T20:40:50.719Z,7.40
2019-03-24T20:43:26.105Z,6.73
2019-03-24T20:45:57.031Z,6.73
2019-03-24T20:48:30.132Z,6.87
2019-03-24T20:50:58.533Z,5.90
2019-03-24T20:53:30.099Z,6.63
2019-03-24T20:56:07.191Z,6.20
2019-03-24T20:58:35.826Z,5.47
2019-03-24T21:01:08.284Z,6.37
2019-03-24T21:03:40.394Z,5.33
2019-03-24T21:06:08.951Z,4.73
2019-03-24T21:08:37.285Z,5.20
2019-03-24T21:11:06.038Z,5.87
2019-03-24T21:13:35.434Z,5.80
2019-03-24T21:16:07.023Z,4.70
2019-03-24T21:18:36.817Z,5.20
2019-03-24T21:21:10.774Z,6.07
2019-03-24T21:23:51.231Z,5.13
2019-03-24T21:26:37.570Z,5.00
2019-03-24T21:29:06.912Z,5.27
2019-03-24T21:31:40.521Z,6.10
2019-03-24T21:34:14.380Z,6.47
2019-03-24T21:36:49.354Z,5.87
2019-03-24T21:39:23.306Z,6.00
2019-03-24T21:42:21.940Z,5.30
2019-03-24T21:44:50.642Z,5.17
2019-03-24T21:47:18.892Z,5.27
2019-03-24T21:49:48.632Z,5.10
2019-03-24T21:52:17.149Z,5.23
2019-03-24T21:54:49.493Z,5.10
2019-03-24T21:57:22.399Z,5.00
2019-03-24T21:59:50.618Z,5.13
2019-03-24T22:02:19.832Z,5.87
2019-03-24T22:04:51.427Z,6.17
2019-03-24T22:07:19.769Z,5.77
2019-03-24T22:09:48.204Z,6.47
2019-03-24T22:12:16.486Z,6.10
2019-03-24T22:14:47.720Z,5.97
2019-03-24T22:17:15.991Z,5.93
2019-03-24T22:19:46.586Z,6.17
2019-03-24T22:22:14.990Z,5.90
2019-03-24T22:24:43.336Z,5.90
2019-03-24T22:27:12.858Z,6.37
2019-03-24T22:29:41.110Z,6.00
2019-03-24T22:32:09.330Z,5.43
2019-03-24T22:34:38.233Z,5.57
2019-03-24T22:37:15.493Z,5.63
2019-03-24T22:39:36.441Z,6.97
2019-03-24T22:42:04.941Z,7.07
2019-03-24T22:44:34.248Z,6.33
2019-03-24T22:47:04.723Z,6.20
2019-03-24T22:49:33.532Z,6.70
2019-03-24T22:52:07.275Z,6.53
2019-03-24T22:54:39.478Z,5.97
2019-03-24T22:57:07.868Z,6.63
2019-03-24T22:59:46.962Z,5.77
2019-03-24T23:02:16.915Z,6.10
2019-03-24T23:04:45.282Z,6.03
2019-03-24T23:07:13.641Z,5.97
2019-03-24T23:09:41.874Z,5.67
2019-03-24T23:12:11.418Z,5.70
2019-03-24T23:14:41.054Z,5.90
2019-03-24T23:17:09.477Z,6.20
2019-03-24T23:19:42.243Z,6.07
2019-03-24T23:22:38.670Z,5.90
2019-03-24T23:25:07.286Z,6.40
2019-03-24T23:27:37.253Z,6.80
2019-03-24T23:30:07.446Z,7.70
2019-03-24T23:32:38.287Z,8.47
2019-03-24T23:35:06.975Z,8.93
2019-03-24T23:37:35.389Z,9.17
2019-03-24T23:40:04.393Z,8.60
2019-03-24T23:42:32.873Z,8.10
2019-03-24T23:45:01.142Z,8.20
2019-03-24T23:47:29.307Z,8.00
2019-03-24T23:49:57.607Z,8.30
2019-03-24T23:52:26.330Z,7.93
2019-03-24T23:54:56.989Z,8.10
2019-03-24T23:57:28.409Z,8.53
2019-03-24T23:59:59.719Z,7.57
